Observations for CONINGSBY RAF, United Kingdom (EGXC)

EGXC 190250Z 23009KT 9999 SCT025 BKN035 17/14 Q1008 BLU 
EGXC 190150Z 20013KT CAVOK 18/14 Q1008 BLU  
EGXC 190050Z 21013KT CAVOK 18/14 Q1008 BLU  
EGXC 182350Z 22014KT 9999 -RA FEW050 OVC140 18/14 Q1008 BLU 
EGXC 182250Z 21015G25KT CAVOK 18/14 Q1008 BLU   
EGXC 182150Z 20014KT CAVOK 18/14 Q1008 BLU  
EGXC 182050Z 19015KT CAVOK 18/14 Q1008 BLU  
EGXC 181950Z 20014KT CAVOK 18/14 Q1008 BLU  
EGXC 181850Z 21013KT CAVOK 19/13 Q1008 BLU  
EGXC 181750Z 23019KT 9999 FEW040 SCT250 20/12 Q1007 BLU 
EGXC 181650Z 23019G33KT 9999 FEW040 BKN250 21/13 Q1006 BLU  
EGXC 181550Z 23020KT 9999 FEW040 SCT065 BKN250 22/13 Q1006 BLU NOSIG
EGXC 181450Z 24021KT 9999 FEW040 BKN250 23/13 Q1006 BLU NOSIG   
EGXC 181350Z 24021G32KT 9999 FEW040 BKN250 23/13 Q1005 BLU NOSIG
EGXC 181250Z 25020G31KT 9999 FEW045 BKN250 22/11 Q1004 BLU NOSIG
EGXC 181150Z 23020G31KT 9999 FEW038 BKN250 22/13 Q1004 BLU NOSIG
EGXC 181050Z 23022G32KT 9999 SCT030 BKN250 21/13 Q1003 BLU NOSIG
EGXC 180950Z 23023G33KT 9999 BKN030 22/15 Q1002 BLU NOSIG   
EGXC 180850Z 22023KT 9999 -RA BKN024 20/15 Q1001 WHT NOSIG  
EGXC 180750Z 21019KT 9999 BKN023 SCT045 20/15 Q1001 WHT NOSIG   
EGXC 180650Z 20020G30KT 9999 BKN023 BKN035 19/15 Q1000 WHT NOSIG
EGXC 180550Z 17015KT 9999 BKN025 17/14 Q1000 BLU BECMG BKN022 WHT   
EGXC 180450Z 16010KT 9999 BKN025 16/13 Q1001 BLU
EGXC 180350Z 16008KT 9999 FEW020 15/11 Q1002 BLU
EGXC 180250Z 19006KT 9999 FEW020 15/11 Q1003 BLU